sensor_id;sensor_type;location;lat;lon;timestamp;temperature;humidity
4509;DHT22;2267;48.816;9.230;2023-04-15T00:01:00;10.70;92.40
4509;DHT22;2267;48.816;9.230;2023-04-15T00:03:28;10.60;92.50
4509;DHT22;2267;48.816;9.230;2023-04-15T00:05:56;10.60;92.80
4509;DHT22;2267;48.816;9.230;2023-04-15T00:08:23;10.60;92.60
4509;DHT22;2267;48.816;9.230;2023-04-15T00:10:50;10.60;92.70
4509;DHT22;2267;48.816;9.230;2023-04-15T00:13:17;10.50;92.90
4509;DHT22;2267;48.816;9.230;2023-04-15T00:15:43;10.50;92.70
4509;DHT22;2267;48.816;9.230;2023-04-15T00:18:10;10.40;93.00
4509;DHT22;2267;48.816;9.230;2023-04-15T00:20:37;10.40;93.00
4509;DHT22;2267;48.816;9.230;2023-04-15T00:23:04;10.40;92.90
4509;DHT22;2267;48.816;9.230;2023-04-15T00:25:31;10.40;93.00
4509;DHT22;2267;48.816;9.230;2023-04-15T00:27:58;10.40;93.00
4509;DHT22;2267;48.816;9.230;2023-04-15T00:30:25;10.30;92.90
4509;DHT22;2267;48.816;9.230;2023-04-15T00:32:52;10.30;93.00
4509;DHT22;2267;48.816;9.230;2023-04-15T00:35:19;10.30;93.20
4509;DHT22;2267;48.816;9.230;2023-04-15T00:37:46;10.20;93.20
4509;DHT22;2267;48.816;9.230;2023-04-15T00:40:16;10.20;93.30
4509;DHT22;2267;48.816;9.230;2023-04-15T00:42:44;10.20;93.30
4509;DHT22;2267;48.816;9.230;2023-04-15T00:45:11;10.20;93.20
4509;DHT22;2267;48.816;9.230;2023-04-15T00:47:40;10.20;93.10
4509;DHT22;2267;48.816;9.230;2023-04-15T00:50:08;10.10;93.10
4509;DHT22;2267;48.816;9.230;2023-04-15T00:52:35;10.10;93.20
4509;DHT22;2267;48.816;9.230;2023-04-15T00:55:03;10.10;93.30
4509;DHT22;2267;48.816;9.230;2023-04-15T00:57:30;10.10;93.40
4509;DHT22;2267;48.816;9.230;2023-04-15T00:59:57;10.10;93.50
4509;DHT22;2267;48.816;9.230;2023-04-15T01:02:24;10.10;93.60
4509;DHT22;2267;48.816;9.230;2023-04-15T01:04:51;10.00;93.70
4509;DHT22;2267;48.816;9.230;2023-04-15T01:07:18;10.00;93.60
4509;DHT22;2267;48.816;9.230;2023-04-15T01:09:45;10.00;93.60
4509;DHT22;2267;48.816;9.230;2023-04-15T01:12:14;10.00;93.60
4509;DHT22;2267;48.816;9.230;2023-04-15T01:14:42;9.90;94.20
4509;DHT22;2267;48.816;9.230;2023-04-15T01:17:09;9.90;94.30
4509;DHT22;2267;48.816;9.230;2023-04-15T01:19:36;9.90;94.50
4509;DHT22;2267;48.816;9.230;2023-04-15T01:22:03;9.80;94.50
4509;DHT22;2267;48.816;9.230;2023-04-15T01:24:31;9.80;94.50
4509;DHT22;2267;48.816;9.230;2023-04-15T01:26:59;9.80;94.40
4509;DHT22;2267;48.816;9.230;2023-04-15T01:29:26;9.80;94.50
4509;DHT22;2267;48.816;9.230;2023-04-15T01:31:54;9.70;94.70
4509;DHT22;2267;48.816;9.230;2023-04-15T01:34:22;9.70;94.80
4509;DHT22;2267;48.816;9.230;2023-04-15T01:36:49;9.70;94.70
4509;DHT22;2267;48.816;9.230;2023-04-15T01:39:16;9.70;94.50
4509;DHT22;2267;48.816;9.230;2023-04-15T01:41:43;9.70;94.70
4509;DHT22;2267;48.816;9.230;2023-04-15T01:44:10;9.70;94.80
4509;DHT22;2267;48.816;9.230;2023-04-15T01:46:37;9.70;95.00
4509;DHT22;2267;48.816;9.230;2023-04-15T01:49:03;9.70;95.30
4509;DHT22;2267;48.816;9.230;2023-04-15T01:51:30;9.70;95.50
4509;DHT22;2267;48.816;9.230;2023-04-15T01:53:57;9.60;95.50
4509;DHT22;2267;48.816;9.230;2023-04-15T01:56:24;9.70;95.50
4509;DHT22;2267;48.816;9.230;2023-04-15T01:58:52;9.60;95.50
4509;DHT22;2267;48.816;9.230;2023-04-15T02:01:19;9.60;95.30
4509;DHT22;2267;48.816;9.230;2023-04-15T02:03:46;9.60;95.40
4509;DHT22;2267;48.816;9.230;2023-04-15T02:06:14;9.50;95.30
4509;DHT22;2267;48.816;9.230;2023-04-15T02:08:41;9.50;95.30
4509;DHT22;2267;48.816;9.230;2023-04-15T02:11:08;9.50;95.30
4509;DHT22;2267;48.816;9.230;2023-04-15T02:13:34;9.40;95.70
4509;DHT22;2267;48.816;9.230;2023-04-15T02:16:02;9.40;95.50
4509;DHT22;2267;48.816;9.230;2023-04-15T02:18:29;9.40;95.40
4509;DHT22;2267;48.816;9.230;2023-04-15T02:20:56;9.40;95.60
4509;DHT22;2267;48.816;9.230;2023-04-15T02:23:24;9.30;95.70
4509;DHT22;2267;48.816;9.230;2023-04-15T02:25:51;9.30;95.80
4509;DHT22;2267;48.816;9.230;2023-04-15T02:28:20;9.30;95.70
4509;DHT22;2267;48.816;9.230;2023-04-15T02:30:48;9.20;95.50
4509;DHT22;2267;48.816;9.230;2023-04-15T02:33:18;9.20;95.60
4509;DHT22;2267;48.816;9.230;2023-04-15T02:35:45;9.20;95.70
4509;DHT22;2267;48.816;9.230;2023-04-15T02:38:12;9.10;95.70
4509;DHT22;2267;48.816;9.230;2023-04-15T02:40:43;9.10;95.70
4509;DHT22;2267;48.816;9.230;2023-04-15T02:43:10;9.10;95.60
4509;DHT22;2267;48.816;9.230;2023-04-15T02:45:37;9.10;95.70
4509;DHT22;2267;48.816;9.230;2023-04-15T02:48:04;9.10;95.80
4509;DHT22;2267;48.816;9.230;2023-04-15T02:50:32;9.10;95.70
4509;DHT22;2267;48.816;9.230;2023-04-15T02:52:59;9.00;95.70
4509;DHT22;2267;48.816;9.230;2023-04-15T02:55:27;9.00;95.70
4509;DHT22;2267;48.816;9.230;2023-04-15T02:57:54;9.00;95.70
4509;DHT22;2267;48.816;9.230;2023-04-15T03:00:21;9.00;95.70
4509;DHT22;2267;48.816;9.230;2023-04-15T03:02:57;9.00;95.80
4509;DHT22;2267;48.816;9.230;2023-04-15T03:05:24;9.00;96.00
4509;DHT22;2267;48.816;9.230;2023-04-15T03:07:52;9.00;96.00
4509;DHT22;2267;48.816;9.230;2023-04-15T03:10:19;9.00;96.00
4509;DHT22;2267;48.816;9.230;2023-04-15T03:12:46;9.00;96.10
4509;DHT22;2267;48.816;9.230;2023-04-15T03:15:14;8.90;95.90
4509;DHT22;2267;48.816;9.230;2023-04-15T03:17:41;8.90;95.90
4509;DHT22;2267;48.816;9.230;2023-04-15T03:20:08;8.90;95.80
4509;DHT22;2267;48.816;9.230;2023-04-15T03:22:35;8.90;95.70
4509;DHT22;2267;48.816;9.230;2023-04-15T03:25:02;8.90;95.70
4509;DHT22;2267;48.816;9.230;2023-04-15T03:27:29;8.90;95.80
4509;DHT22;2267;48.816;9.230;2023-04-15T03:29:56;8.90;96.00
4509;DHT22;2267;48.816;9.230;2023-04-15T03:32:23;8.90;96.00
4509;DHT22;2267;48.816;9.230;2023-04-15T03:34:50;8.90;96.00
4509;DHT22;2267;48.816;9.230;2023-04-15T03:37:16;8.80;95.90
4509;DHT22;2267;48.816;9.230;2023-04-15T03:39:43;8.80;96.00
4509;DHT22;2267;48.816;9.230;2023-04-15T03:42:10;8.80;96.00
4509;DHT22;2267;48.816;9.230;2023-04-15T03:44:37;8.80;96.00
4509;DHT22;2267;48.816;9.230;2023-04-15T03:47:04;8.70;96.00
4509;DHT22;2267;48.816;9.230;2023-04-15T03:49:30;8.70;96.10
4509;DHT22;2267;48.816;9.230;2023-04-15T03:51:57;8.60;96.10
4509;DHT22;2267;48.816;9.230;2023-04-15T03:54:25;8.60;96.10
4509;DHT22;2267;48.816;9.230;2023-04-15T03:56:51;8.60;96.00
4509;DHT22;2267;48.816;9.230;2023-04-15T03:59:18;8.60;95.90
4509;DHT22;2267;48.816;9.230;2023-04-15T04:01:45;8.50;96.10
4509;DHT22;2267;48.816;9.230;2023-04-15T04:04:12;8.60;96.40
4509;DHT22;2267;48.816;9.230;2023-04-15T04:06:39;8.50;96.40
4509;DHT22;2267;48.816;9.230;2023-04-15T04:09:06;8.50;96.40
4509;DHT22;2267;48.816;9.230;2023-04-15T04:11:33;8.50;96.30
4509;DHT22;2267;48.816;9.230;2023-04-15T04:13:59;8.50;96.30
4509;DHT22;2267;48.816;9.230;2023-04-15T04:16:26;8.50;96.20
4509;DHT22;2267;48.816;9.230;2023-04-15T04:18:53;8.50;96.30
4509;DHT22;2267;48.816;9.230;2023-04-15T04:21:20;8.40;96.20
4509;DHT22;2267;48.816;9.230;2023-04-15T04:23:47;8.40;96.30
4509;DHT22;2267;48.816;9.230;2023-04-15T04:26:14;8.40;96.30
4509;DHT22;2267;48.816;9.230;2023-04-15T04:28:40;8.40;96.40
4509;DHT22;2267;48.816;9.230;2023-04-15T04:31:07;8.30;96.40
4509;DHT22;2267;48.816;9.230;2023-04-15T04:33:34;8.30;96.40
4509;DHT22;2267;48.816;9.230;2023-04-15T04:36:01;8.30;96.50
4509;DHT22;2267;48.816;9.230;2023-04-15T04:38:28;8.30;96.50
4509;DHT22;2267;48.816;9.230;2023-04-15T04:40:55;8.30;96.40
4509;DHT22;2267;48.816;9.230;2023-04-15T04:43:21;8.30;96.40
4509;DHT22;2267;48.816;9.230;2023-04-15T04:45:48;8.30;96.90
4509;DHT22;2267;48.816;9.230;2023-04-15T04:48:15;8.20;96.40
4509;DHT22;2267;48.816;9.230;2023-04-15T04:50:43;8.20;96.60
4509;DHT22;2267;48.816;9.230;2023-04-15T04:53:11;8.20;96.60
4509;DHT22;2267;48.816;9.230;2023-04-15T04:55:38;8.20;96.60
4509;DHT22;2267;48.816;9.230;2023-04-15T04:58:04;8.20;96.60
4509;DHT22;2267;48.816;9.230;2023-04-15T05:00:31;8.20;96.70
4509;DHT22;2267;48.816;9.230;2023-04-15T05:02:58;8.20;96.80
4509;DHT22;2267;48.816;9.230;2023-04-15T05:05:25;8.20;96.60
4509;DHT22;2267;48.816;9.230;2023-04-15T05:07:52;8.10;96.70
4509;DHT22;2267;48.816;9.230;2023-04-15T05:10:19;8.20;96.60
4509;DHT22;2267;48.816;9.230;2023-04-15T05:12:46;8.20;96.70
4509;DHT22;2267;48.816;9.230;2023-04-15T05:15:13;8.20;96.70
4509;DHT22;2267;48.816;9.230;2023-04-15T05:17:40;8.10;96.70
4509;DHT22;2267;48.816;9.230;2023-04-15T05:20:07;8.20;96.70
4509;DHT22;2267;48.816;9.230;2023-04-15T05:22:34;8.10;96.60
4509;DHT22;2267;48.816;9.230;2023-04-15T05:25:00;8.10;96.70
4509;DHT22;2267;48.816;9.230;2023-04-15T05:27:27;8.10;96.50
4509;DHT22;2267;48.816;9.230;2023-04-15T05:29:54;8.10;96.40
4509;DHT22;2267;48.816;9.230;2023-04-15T05:32:22;8.10;96.60
4509;DHT22;2267;48.816;9.230;2023-04-15T05:34:49;8.10;96.40
4509;DHT22;2267;48.816;9.230;2023-04-15T05:37:16;8.10;96.40
4509;DHT22;2267;48.816;9.230;2023-04-15T05:39:42;8.00;96.20
4509;DHT22;2267;48.816;9.230;2023-04-15T05:42:09;8.00;96.30
4509;DHT22;2267;48.816;9.230;2023-04-15T05:44:37;8.00;96.50
4509;DHT22;2267;48.816;9.230;2023-04-15T05:47:03;8.00;96.40
4509;DHT22;2267;48.816;9.230;2023-04-15T05:49:31;7.90;96.40
4509;DHT22;2267;48.816;9.230;2023-04-15T05:51:58;7.80;96.40
4509;DHT22;2267;48.816;9.230;2023-04-15T05:54:25;7.80;96.50
4509;DHT22;2267;48.816;9.230;2023-04-15T05:56:53;7.80;96.70
4509;DHT22;2267;48.816;9.230;2023-04-15T05:59:20;7.80;96.60
4509;DHT22;2267;48.816;9.230;2023-04-15T06:01:47;7.90;96.60
4509;DHT22;2267;48.816;9.230;2023-04-15T06:04:14;7.80;96.30
4509;DHT22;2267;48.816;9.230;2023-04-15T06:06:41;7.80;96.60
4509;DHT22;2267;48.816;9.230;2023-04-15T06:09:08;7.80;96.30
4509;DHT22;2267;48.816;9.230;2023-04-15T06:11:35;7.90;96.40
4509;DHT22;2267;48.816;9.230;2023-04-15T06:14:01;7.80;96.20
4509;DHT22;2267;48.816;9.230;2023-04-15T06:16:28;7.90;96.40
4509;DHT22;2267;48.816;9.230;2023-04-15T06:18:55;7.90;96.50
4509;DHT22;2267;48.816;9.230;2023-04-15T06:21:22;8.00;96.40
4509;DHT22;2267;48.816;9.230;2023-04-15T06:23:49;8.00;96.30
4509;DHT22;2267;48.816;9.230;2023-04-15T06:26:15;8.20;96.40
4509;DHT22;2267;48.816;9.230;2023-04-15T06:28:42;8.20;96.30
4509;DHT22;2267;48.816;9.230;2023-04-15T06:31:09;8.30;96.20
4509;DHT22;2267;48.816;9.230;2023-04-15T06:33:36;8.30;95.80
4509;DHT22;2267;48.816;9.230;2023-04-15T06:36:03;8.40;95.80
4509;DHT22;2267;48.816;9.230;2023-04-15T06:38:30;8.50;95.90
4509;DHT22;2267;48.816;9.230;2023-04-15T06:40:56;8.50;95.80
4509;DHT22;2267;48.816;9.230;2023-04-15T06:43:23;8.60;95.80
4509;DHT22;2267;48.816;9.230;2023-04-15T06:45:50;8.70;96.00
4509;DHT22;2267;48.816;9.230;2023-04-15T06:48:17;8.80;96.00
4509;DHT22;2267;48.816;9.230;2023-04-15T06:50:44;8.80;95.50
4509;DHT22;2267;48.816;9.230;2023-04-15T06:53:11;8.90;95.70
4509;DHT22;2267;48.816;9.230;2023-04-15T06:55:37;8.90;95.80
4509;DHT22;2267;48.816;9.230;2023-04-15T06:58:05;9.00;95.50
4509;DHT22;2267;48.816;9.230;2023-04-15T07:00:32;9.00;95.30
4509;DHT22;2267;48.816;9.230;2023-04-15T07:03:00;9.10;95.60
4509;DHT22;2267;48.816;9.230;2023-04-15T07:05:29;9.10;95.60
4509;DHT22;2267;48.816;9.230;2023-04-15T07:07:57;9.20;95.20
4509;DHT22;2267;48.816;9.230;2023-04-15T07:10:24;9.20;95.10
4509;DHT22;2267;48.816;9.230;2023-04-15T07:12:51;9.20;94.80
4509;DHT22;2267;48.816;9.230;2023-04-15T07:15:18;9.20;94.70
4509;DHT22;2267;48.816;9.230;2023-04-15T07:17:45;9.20;94.50
4509;DHT22;2267;48.816;9.230;2023-04-15T07:20:12;9.20;94.60
4509;DHT22;2267;48.816;9.230;2023-04-15T07:22:39;9.20;94.60
4509;DHT22;2267;48.816;9.230;2023-04-15T07:25:06;9.20;94.60
4509;DHT22;2267;48.816;9.230;2023-04-15T07:27:33;9.20;94.50
4509;DHT22;2267;48.816;9.230;2023-04-15T07:30:00;9.20;94.70
4509;DHT22;2267;48.816;9.230;2023-04-15T07:32:27;9.20;94.60
4509;DHT22;2267;48.816;9.230;2023-04-15T07:34:54;9.30;94.60
4509;DHT22;2267;48.816;9.230;2023-04-15T07:37:20;9.30;94.60
4509;DHT22;2267;48.816;9.230;2023-04-15T07:39:47;9.40;94.50
4509;DHT22;2267;48.816;9.230;2023-04-15T07:42:15;9.40;94.50
4509;DHT22;2267;48.816;9.230;2023-04-15T07:44:41;9.40;94.30
4509;DHT22;2267;48.816;9.230;2023-04-15T07:47:08;9.50;94.50
4509;DHT22;2267;48.816;9.230;2023-04-15T07:49:35;9.50;94.50
4509;DHT22;2267;48.816;9.230;2023-04-15T07:52:02;9.60;94.60
4509;DHT22;2267;48.816;9.230;2023-04-15T07:54:29;9.70;94.20
4509;DHT22;2267;48.816;9.230;2023-04-15T07:56:56;9.70;94.20
4509;DHT22;2267;48.816;9.230;2023-04-15T07:59:22;9.80;94.30
4509;DHT22;2267;48.816;9.230;2023-04-15T08:01:49;9.90;94.90
4509;DHT22;2267;48.816;9.230;2023-04-15T08:04:16;10.00;94.10
4509;DHT22;2267;48.816;9.230;2023-04-15T08:06:43;10.00;94.00
4509;DHT22;2267;48.816;9.230;2023-04-15T08:09:10;10.10;94.00
4509;DHT22;2267;48.816;9.230;2023-04-15T08:11:37;10.10;93.50
4509;DHT22;2267;48.816;9.230;2023-04-15T08:14:03;10.20;93.60
4509;DHT22;2267;48.816;9.230;2023-04-15T08:16:30;10.30;93.50
4509;DHT22;2267;48.816;9.230;2023-04-15T08:18:57;10.30;93.40
4509;DHT22;2267;48.816;9.230;2023-04-15T08:21:24;10.40;93.70
4509;DHT22;2267;48.816;9.230;2023-04-15T08:23:51;10.60;93.50
4509;DHT22;2267;48.816;9.230;2023-04-15T08:26:19;10.60;93.50
4509;DHT22;2267;48.816;9.230;2023-04-15T08:28:47;10.70;93.40
4509;DHT22;2267;48.816;9.230;2023-04-15T08:31:16;10.80;93.10
4509;DHT22;2267;48.816;9.230;2023-04-15T08:33:43;10.90;92.80
4509;DHT22;2267;48.816;9.230;2023-04-15T08:36:10;11.00;93.00
4509;DHT22;2267;48.816;9.230;2023-04-15T08:38:37;11.10;93.10
4509;DHT22;2267;48.816;9.230;2023-04-15T08:41:20;11.20;93.10
4509;DHT22;2267;48.816;9.230;2023-04-15T08:43:57;11.30;92.60
4509;DHT22;2267;48.816;9.230;2023-04-15T08:46:25;11.30;91.90
4509;DHT22;2267;48.816;9.230;2023-04-15T08:48:57;11.40;92.10
4509;DHT22;2267;48.816;9.230;2023-04-15T08:51:24;11.50;92.10
4509;DHT22;2267;48.816;9.230;2023-04-15T08:53:51;11.70;92.40
4509;DHT22;2267;48.816;9.230;2023-04-15T08:56:18;11.80;92.70
4509;DHT22;2267;48.816;9.230;2023-04-15T08:58:49;11.80;92.80
4509;DHT22;2267;48.816;9.230;2023-04-15T09:01:16;11.90;92.70
4509;DHT22;2267;48.816;9.230;2023-04-15T09:03:44;12.00;92.60
4509;DHT22;2267;48.816;9.230;2023-04-15T09:06:14;12.10;92.70
4509;DHT22;2267;48.816;9.230;2023-04-15T09:08:42;12.30;92.70
4509;DHT22;2267;48.816;9.230;2023-04-15T09:11:09;12.30;92.70
4509;DHT22;2267;48.816;9.230;2023-04-15T09:13:35;12.40;92.40
4509;DHT22;2267;48.816;9.230;2023-04-15T09:16:04;12.50;92.40
4509;DHT22;2267;48.816;9.230;2023-04-15T09:18:33;12.50;92.50
4509;DHT22;2267;48.816;9.230;2023-04-15T09:21:11;12.60;92.50
4509;DHT22;2267;48.816;9.230;2023-04-15T09:23:40;12.60;92.20
4509;DHT22;2267;48.816;9.230;2023-04-15T09:26:07;12.70;92.30
4509;DHT22;2267;48.816;9.230;2023-04-15T09:28:41;12.80;92.50
4509;DHT22;2267;48.816;9.230;2023-04-15T09:31:09;12.80;92.10
4509;DHT22;2267;48.816;9.230;2023-04-15T09:33:54;12.90;91.70
4509;DHT22;2267;48.816;9.230;2023-04-15T09:36:24;12.90;91.20
4509;DHT22;2267;48.816;9.230;2023-04-15T09:38:55;13.00;91.50
4509;DHT22;2267;48.816;9.230;2023-04-15T09:41:23;13.00;90.70
4509;DHT22;2267;48.816;9.230;2023-04-15T09:43:50;13.00;90.30
4509;DHT22;2267;48.816;9.230;2023-04-15T09:46:18;13.00;90.00
4509;DHT22;2267;48.816;9.230;2023-04-15T09:48:45;13.10;89.70
4509;DHT22;2267;48.816;9.230;2023-04-15T09:51:12;13.10;89.40
4509;DHT22;2267;48.816;9.230;2023-04-15T09:53:38;13.10;88.70
4509;DHT22;2267;48.816;9.230;2023-04-15T09:56:06;13.20;88.60
4509;DHT22;2267;48.816;9.230;2023-04-15T09:58:34;13.10;89.10
4509;DHT22;2267;48.816;9.230;2023-04-15T10:01:04;13.20;89.00
4509;DHT22;2267;48.816;9.230;2023-04-15T10:03:34;13.20;90.00
4509;DHT22;2267;48.816;9.230;2023-04-15T10:06:02;13.30;90.20
4509;DHT22;2267;48.816;9.230;2023-04-15T10:08:32;13.30;90.20
4509;DHT22;2267;48.816;9.230;2023-04-15T10:11:01;13.40;90.30
4509;DHT22;2267;48.816;9.230;2023-04-15T10:13:31;13.40;90.40
4509;DHT22;2267;48.816;9.230;2023-04-15T10:16:10;13.50;90.70
4509;DHT22;2267;48.816;9.230;2023-04-15T10:18:41;13.50;90.70
4509;DHT22;2267;48.816;9.230;2023-04-15T10:21:09;13.60;90.30
4509;DHT22;2267;48.816;9.230;2023-04-15T10:23:37;13.70;89.90
4509;DHT22;2267;48.816;9.230;2023-04-15T10:26:04;13.80;89.40
4509;DHT22;2267;48.816;9.230;2023-04-15T10:28:31;13.90;88.80
4509;DHT22;2267;48.816;9.230;2023-04-15T10:30:58;13.90;89.50
4509;DHT22;2267;48.816;9.230;2023-04-15T10:33:26;14.00;88.20
4509;DHT22;2267;48.816;9.230;2023-04-15T10:35:54;14.00;88.60
4509;DHT22;2267;48.816;9.230;2023-04-15T10:41:16;14.20;89.20
4509;DHT22;2267;48.816;9.230;2023-04-15T10:43:50;14.20;87.10
4509;DHT22;2267;48.816;9.230;2023-04-15T10:46:40;14.20;85.10
4509;DHT22;2267;48.816;9.230;2023-04-15T10:49:15;14.20;85.10
4509;DHT22;2267;48.816;9.230;2023-04-15T10:51:45;14.30;84.60
4509;DHT22;2267;48.816;9.230;2023-04-15T10:56:51;14.40;83.60
4509;DHT22;2267;48.816;9.230;2023-04-15T10:59:18;14.50;83.40
4509;DHT22;2267;48.816;9.230;2023-04-15T11:01:55;14.60;83.80
4509;DHT22;2267;48.816;9.230;2023-04-15T11:04:55;14.70;82.50
4509;DHT22;2267;48.816;9.230;2023-04-15T11:12:57;15.00;83.50
4509;DHT22;2267;48.816;9.230;2023-04-15T11:15:33;15.20;84.40
4509;DHT22;2267;48.816;9.230;2023-04-15T11:18:12;15.40;82.50
4509;DHT22;2267;48.816;9.230;2023-04-15T11:21:23;15.50;81.40
4509;DHT22;2267;48.816;9.230;2023-04-15T11:26:00;15.50;80.60
4509;DHT22;2267;48.816;9.230;2023-04-15T11:28:29;15.50;80.70
4509;DHT22;2267;48.816;9.230;2023-04-15T11:30:57;15.50;81.20
4509;DHT22;2267;48.816;9.230;2023-04-15T11:33:24;15.50;82.00
4509;DHT22;2267;48.816;9.230;2023-04-15T11:35:52;15.50;82.60
4509;DHT22;2267;48.816;9.230;2023-04-15T11:38:21;15.40;82.80
4509;DHT22;2267;48.816;9.230;2023-04-15T11:40:49;15.40;83.10
4509;DHT22;2267;48.816;9.230;2023-04-15T11:43:20;15.30;83.40
4509;DHT22;2267;48.816;9.230;2023-04-15T11:48:15;15.00;84.10
4509;DHT22;2267;48.816;9.230;2023-04-15T11:50:42;14.90;85.10
4509;DHT22;2267;48.816;9.230;2023-04-15T11:53:10;14.80;84.40
4509;DHT22;2267;48.816;9.230;2023-04-15T11:55:45;14.70;84.10
4509;DHT22;2267;48.816;9.230;2023-04-15T11:58:20;14.70;83.90
4509;DHT22;2267;48.816;9.230;2023-04-15T12:00:56;14.70;84.00
4509;DHT22;2267;48.816;9.230;2023-04-15T12:03:34;14.70;84.10
4509;DHT22;2267;48.816;9.230;2023-04-15T12:06:20;14.70;83.90
4509;DHT22;2267;48.816;9.230;2023-04-15T12:14:11;14.80;82.90
4509;DHT22;2267;48.816;9.230;2023-04-15T12:16:46;14.70;82.90
4509;DHT22;2267;48.816;9.230;2023-04-15T12:19:22;14.70;82.30
4509;DHT22;2267;48.816;9.230;2023-04-15T12:21:50;14.50;82.60
4509;DHT22;2267;48.816;9.230;2023-04-15T12:24:20;14.40;82.80
4509;DHT22;2267;48.816;9.230;2023-04-15T12:26:53;14.30;82.80
4509;DHT22;2267;48.816;9.230;2023-04-15T12:29:24;14.30;83.30
4509;DHT22;2267;48.816;9.230;2023-04-15T12:31:54;14.20;84.70
4509;DHT22;2267;48.816;9.230;2023-04-15T12:34:28;14.10;89.30
4509;DHT22;2267;48.816;9.230;2023-04-15T12:36:56;13.90;91.30
4509;DHT22;2267;48.816;9.230;2023-04-15T12:39:25;13.70;92.00
4509;DHT22;2267;48.816;9.230;2023-04-15T12:41:54;13.60;92.70
4509;DHT22;2267;48.816;9.230;2023-04-15T12:44:22;13.40;93.40
4509;DHT22;2267;48.816;9.230;2023-04-15T12:46:50;13.20;94.20
4509;DHT22;2267;48.816;9.230;2023-04-15T12:49:23;13.00;94.30
4509;DHT22;2267;48.816;9.230;2023-04-15T12:51:52;12.90;95.00
4509;DHT22;2267;48.816;9.230;2023-04-15T12:54:20;12.80;95.10
4509;DHT22;2267;48.816;9.230;2023-04-15T12:56:48;12.80;95.30
4509;DHT22;2267;48.816;9.230;2023-04-15T12:59:16;12.80;95.50
4509;DHT22;2267;48.816;9.230;2023-04-15T13:01:46;12.80;95.40
4509;DHT22;2267;48.816;9.230;2023-04-15T13:04:15;12.90;95.60
4509;DHT22;2267;48.816;9.230;2023-04-15T13:06:42;13.00;95.70
4509;DHT22;2267;48.816;9.230;2023-04-15T13:09:09;13.00;95.30
4509;DHT22;2267;48.816;9.230;2023-04-15T13:11:36;13.00;93.90
4509;DHT22;2267;48.816;9.230;2023-04-15T13:14:05;13.00;93.40
4509;DHT22;2267;48.816;9.230;2023-04-15T13:16:33;13.10;92.00
4509;DHT22;2267;48.816;9.230;2023-04-15T13:19:01;13.10;92.10
4509;DHT22;2267;48.816;9.230;2023-04-15T13:21:29;13.10;91.90
4509;DHT22;2267;48.816;9.230;2023-04-15T13:23:58;13.20;91.70
4509;DHT22;2267;48.816;9.230;2023-04-15T13:26:25;13.20;91.60
4509;DHT22;2267;48.816;9.230;2023-04-15T13:28:52;13.30;91.50
4509;DHT22;2267;48.816;9.230;2023-04-15T13:31:19;13.30;91.20
4509;DHT22;2267;48.816;9.230;2023-04-15T13:33:45;13.40;91.10
4509;DHT22;2267;48.816;9.230;2023-04-15T13:36:12;13.40;91.20
4509;DHT22;2267;48.816;9.230;2023-04-15T13:38:39;13.40;91.00
4509;DHT22;2267;48.816;9.230;2023-04-15T13:41:06;13.50;90.80
4509;DHT22;2267;48.816;9.230;2023-04-15T13:43:33;13.50;90.70
4509;DHT22;2267;48.816;9.230;2023-04-15T13:46:00;13.50;89.60
4509;DHT22;2267;48.816;9.230;2023-04-15T13:48:27;13.60;89.90
4509;DHT22;2267;48.816;9.230;2023-04-15T13:50:54;13.60;88.60
4509;DHT22;2267;48.816;9.230;2023-04-15T13:53:21;13.70;85.90
4509;DHT22;2267;48.816;9.230;2023-04-15T13:56:07;13.70;85.50
4509;DHT22;2267;48.816;9.230;2023-04-15T13:58:35;13.60;83.80
4509;DHT22;2267;48.816;9.230;2023-04-15T14:01:02;13.60;80.10
4509;DHT22;2267;48.816;9.230;2023-04-15T14:03:32;13.60;77.20
4509;DHT22;2267;48.816;9.230;2023-04-15T14:05:59;13.50;76.90
4509;DHT22;2267;48.816;9.230;2023-04-15T14:08:26;13.50;77.70
4509;DHT22;2267;48.816;9.230;2023-04-15T14:10:53;13.50;77.10
4509;DHT22;2267;48.816;9.230;2023-04-15T14:13:20;13.60;77.20
4509;DHT22;2267;48.816;9.230;2023-04-15T14:15:47;13.60;78.20
4509;DHT22;2267;48.816;9.230;2023-04-15T14:18:13;13.60;78.40
4509;DHT22;2267;48.816;9.230;2023-04-15T14:20:40;13.60;77.90
4509;DHT22;2267;48.816;9.230;2023-04-15T14:23:07;13.60;76.00
4509;DHT22;2267;48.816;9.230;2023-04-15T14:25:34;13.60;75.50
4509;DHT22;2267;48.816;9.230;2023-04-15T14:28:01;13.60;74.70
4509;DHT22;2267;48.816;9.230;2023-04-15T14:30:29;13.60;75.80
4509;DHT22;2267;48.816;9.230;2023-04-15T14:32:56;13.60;75.90
4509;DHT22;2267;48.816;9.230;2023-04-15T14:35:23;13.60;76.70
4509;DHT22;2267;48.816;9.230;2023-04-15T14:37:52;13.60;76.60
4509;DHT22;2267;48.816;9.230;2023-04-15T14:40:19;13.60;76.70
4509;DHT22;2267;48.816;9.230;2023-04-15T14:42:46;13.60;76.80
4509;DHT22;2267;48.816;9.230;2023-04-15T14:45:13;13.60;78.00
4509;DHT22;2267;48.816;9.230;2023-04-15T14:47:40;13.50;77.00
4509;DHT22;2267;48.816;9.230;2023-04-15T14:50:07;13.50;77.10
4509;DHT22;2267;48.816;9.230;2023-04-15T14:52:34;13.40;76.20
4509;DHT22;2267;48.816;9.230;2023-04-15T14:55:08;13.40;76.10
4509;DHT22;2267;48.816;9.230;2023-04-15T14:57:40;13.40;76.60
4509;DHT22;2267;48.816;9.230;2023-04-15T15:00:08;13.30;75.90
4509;DHT22;2267;48.816;9.230;2023-04-15T15:02:36;13.30;76.50
4509;DHT22;2267;48.816;9.230;2023-04-15T15:05:07;13.20;76.70
4509;DHT22;2267;48.816;9.230;2023-04-15T15:07:34;13.20;76.60
4509;DHT22;2267;48.816;9.230;2023-04-15T15:10:03;13.10;77.30
4509;DHT22;2267;48.816;9.230;2023-04-15T15:12:30;13.00;77.50
4509;DHT22;2267;48.816;9.230;2023-04-15T15:14:57;13.00;78.00
4509;DHT22;2267;48.816;9.230;2023-04-15T15:17:27;13.00;78.50
4509;DHT22;2267;48.816;9.230;2023-04-15T15:19:53;13.00;79.10
4509;DHT22;2267;48.816;9.230;2023-04-15T15:22:20;13.00;79.30
4509;DHT22;2267;48.816;9.230;2023-04-15T15:24:47;12.90;79.30
4509;DHT22;2267;48.816;9.230;2023-04-15T15:27:14;12.90;79.80
4509;DHT22;2267;48.816;9.230;2023-04-15T15:29:41;12.90;80.00
4509;DHT22;2267;48.816;9.230;2023-04-15T15:32:08;12.90;80.50
4509;DHT22;2267;48.816;9.230;2023-04-15T15:34:34;12.90;81.30
4509;DHT22;2267;48.816;9.230;2023-04-15T15:37:01;12.90;81.40
4509;DHT22;2267;48.816;9.230;2023-04-15T15:39:28;12.90;81.90
4509;DHT22;2267;48.816;9.230;2023-04-15T15:41:55;12.90;82.20
4509;DHT22;2267;48.816;9.230;2023-04-15T15:44:22;12.90;82.60
4509;DHT22;2267;48.816;9.230;2023-04-15T15:46:49;12.90;82.10
4509;DHT22;2267;48.816;9.230;2023-04-15T15:49:16;12.90;82.10
4509;DHT22;2267;48.816;9.230;2023-04-15T15:51:43;12.90;82.20
4509;DHT22;2267;48.816;9.230;2023-04-15T15:54:11;12.80;82.80
4509;DHT22;2267;48.816;9.230;2023-04-15T15:56:38;12.80;83.10
4509;DHT22;2267;48.816;9.230;2023-04-15T15:59:05;12.80;83.90
4509;DHT22;2267;48.816;9.230;2023-04-15T16:01:32;12.80;84.00
4509;DHT22;2267;48.816;9.230;2023-04-15T16:03:59;12.70;86.70
4509;DHT22;2267;48.816;9.230;2023-04-15T16:06:26;12.70;86.70
4509;DHT22;2267;48.816;9.230;2023-04-15T16:08:53;12.60;88.80
4509;DHT22;2267;48.816;9.230;2023-04-15T16:11:20;12.70;89.40
4509;DHT22;2267;48.816;9.230;2023-04-15T16:13:47;12.60;90.80
4509;DHT22;2267;48.816;9.230;2023-04-15T16:16:14;12.60;91.00
4509;DHT22;2267;48.816;9.230;2023-04-15T16:18:41;12.50;91.60
4509;DHT22;2267;48.816;9.230;2023-04-15T16:21:07;12.50;93.00
4509;DHT22;2267;48.816;9.230;2023-04-15T16:23:35;12.50;93.10
4509;DHT22;2267;48.816;9.230;2023-04-15T16:26:02;12.50;93.50
4509;DHT22;2267;48.816;9.230;2023-04-15T16:28:29;12.50;94.10
4509;DHT22;2267;48.816;9.230;2023-04-15T16:30:56;12.50;94.60
4509;DHT22;2267;48.816;9.230;2023-04-15T16:33:23;12.40;96.30
4509;DHT22;2267;48.816;9.230;2023-04-15T16:35:50;12.40;96.00